EDDS

Stuttgart Airport

Stuttgart, Germany
METAR EDDS 221750Z 14003KT 060V210 CAVOK 23/10 Q1013 NOSIG
Observed Flight Rules
Apr-22 @ 17:50 UTC (25 minutes ago) Visual Flight Rules
Wind Visibility Clouds
140° at 3 knots 10,000+ meters
  • Clear skies
Temperatures Readings
Current 23°C / 73°F
Dewpoint 10°C / 50°F
Humidity 44%
Altimeter 29.91" Hg
Pressure 1013 hPa
Elevation 419
METAR EDDS 221750Z 14003KT 060V210 CAVOK 23/10 Q1013 NOSIG
Observed Flight Rules
Apr-22 @ 17:50 UTC
(25 minutes ago)
VFR
Wind Visibility
140° at 3 knots 10,000+ meters
Clouds
  • Clear skies
Temperature Dewpoint
23°C / 73°F 10°C / 50°F
Humidity Altimeter Pressure
44% 29.91" Hg 1013 hPa